Time;durP1;ratioP1;P1;durP2;ratioP2;P2;SDS_P1;SDS_P2;PMS_P1;PMS_P2;Temp;Humidity;BMP_temperature;BMP_pressure;BME280_temperature;BME280_humidity;BME280_pressure;Samples;Min_cycle;Max_cycle;Signal;HPM_P1;HPM_P2
2023/10/18 00:00:53;;;;;;;;;7.67;5.00;;;;;26.50;41.75;98393.38;5076922;27;46325;-87
2023/10/18 00:03:19;;;;;;;;;2.67;2.33;;;;;26.47;41.96;98391.78;5084043;27;45438;-86
2023/10/18 00:05:48;;;;;;;;;4.00;4.00;;;;;26.72;41.95;98420.44;5077629;28;45254;-85
2023/10/18 00:08:15;;;;;;;;;2.00;2.00;;;;;26.80;42.19;98454.72;5077451;28;45390;-86
2023/10/18 00:10:40;;;;;;;;;4.33;4.00;;;;;26.78;42.02;98448.59;5076028;28;46025;-84
2023/10/18 00:13:07;;;;;;;;;5.67;5.00;;;;;26.50;42.21;98422.84;5073851;28;45363;-84
2023/10/18 00:15:32;;;;;;;;;7.00;4.33;;;;;26.70;42.45;98457.16;5076606;27;45435;-81
2023/10/18 00:17:58;;;;;;;;;4.00;4.00;;;;;26.60;42.68;98453.44;5076538;27;45392;-79
2023/10/18 00:20:25;;;;;;;;;3.67;2.33;;;;;26.58;42.42;98431.22;5076496;27;45444;-85
2023/10/18 00:22:51;;;;;;;;;3.67;2.00;;;;;26.66;42.37;98428.00;5076841;28;45535;-84
2023/10/18 00:25:17;;;;;;;;;4.00;4.00;;;;;25.91;41.99;98337.69;5076705;28;45593;-82
2023/10/18 00:27:45;;;;;;;;;4.00;3.33;;;;;26.71;42.02;98448.16;5077125;27;45519;-84
2023/10/18 00:30:11;;;;;;;;;3.33;3.00;;;;;26.19;42.32;98361.59;5076321;27;46296;-87
2023/10/18 00:32:43;;;;;;;;;2.67;2.67;;;;;26.48;41.77;98419.41;5076693;27;45511;-84
2023/10/18 00:35:18;;;;;;;;;4.00;3.00;;;;;26.51;42.13;98414.72;5074372;28;45487;-85
2023/10/18 00:37:44;;;;;;;;;3.33;3.33;;;;;26.03;41.94;98344.88;5075567;28;45615;-86
2023/10/18 00:42:52;;;;;;;;;3.67;3.00;;;;;26.54;42.19;98417.19;5074434;28;45480;-85
2023/10/18 00:45:21;;;;;;;;;4.00;3.00;;;;;26.51;42.08;98429.91;5077362;27;45478;-82
2023/10/18 00:47:47;;;;;;;;;3.00;3.00;;;;;26.41;42.42;98415.47;5077895;27;45497;-84
2023/10/18 00:50:15;;;;;;;;;4.33;3.00;;;;;26.52;41.96;98410.19;5077291;28;46183;-84
2023/10/18 00:52:41;;;;;;;;;4.67;3.00;;;;;26.42;42.12;98414.47;5076853;27;45555;-87
2023/10/18 00:55:11;;;;;;;;;0.00;0.00;;;;;26.45;42.11;98425.84;5077102;27;45531;-85
2023/10/18 00:57:36;;;;;;;;;5.33;4.00;;;;;26.39;42.25;98426.28;5077282;27;45591;-87
2023/10/18 01:00:12;;;;;;;;;2.00;2.00;;;;;26.48;42.43;98439.03;5077040;27;45995;-86
2023/10/18 01:02:42;;;;;;;;;5.00;3.00;;;;;26.38;42.42;98427.22;5076225;27;45433;-84
2023/10/18 01:05:15;;;;;;;;;5.00;4.00;;;;;26.11;42.36;98392.53;5076506;27;45353;-87
2023/10/18 01:07:42;;;;;;;;;6.00;5.00;;;;;26.24;42.95;98404.06;5076143;27;45477;-87
2023/10/18 01:10:09;;;;;;;;;1.33;1.33;;;;;26.44;42.54;98417.91;5075568;27;46422;-88
2023/10/18 01:12:35;;;;;;;;;7.00;5.00;;;;;25.93;42.83;98347.31;5076337;27;45333;-87
2023/10/18 01:15:06;;;;;;;;;5.33;5.00;;;;;26.38;42.70;98414.72;5076958;27;45310;-87
2023/10/18 01:17:34;;;;;;;;;4.33;3.00;;;;;25.69;42.78;98306.19;5075818;27;45662;-85
2023/10/18 01:20:12;;;;;;;;;4.33;2.00;;;;;26.29;42.90;98393.06;5076484;27;45834;-86
2023/10/18 01:22:37;;;;;;;;;5.00;4.00;;;;;26.17;42.93;98378.72;5080045;27;45604;-87
2023/10/18 01:25:04;;;;;;;;;4.00;3.00;;;;;26.41;42.87;98402.06;5080371;27;45817;-86
2023/10/18 01:27:30;;;;;;;;;7.00;3.33;;;;;26.38;42.86;98398.66;5080888;27;45372;-87
2023/10/18 01:29:55;;;;;;;;;5.67;4.33;;;;;26.37;43.32;98407.63;5079986;27;45379;-86
2023/10/18 01:32:21;;;;;;;;;4.67;4.00;;;;;26.14;43.33;98366.41;5080419;27;45242;-86
2023/10/18 01:34:47;;;;;;;;;4.67;3.67;;;;;26.29;43.47;98423.38;5080783;27;45469;-85
2023/10/18 01:37:14;;;;;;;;;4.67;4.00;;;;;26.02;43.53;98358.34;5080659;27;45508;-86
2023/10/18 01:39:40;;;;;;;;;3.67;3.00;;;;;26.16;43.64;98368.97;5080237;27;45449;-86
2023/10/18 01:42:06;;;;;;;;;5.33;3.00;;;;;26.29;43.36;98399.28;5079932;27;45542;-84
2023/10/18 01:44:35;;;;;;;;;5.00;3.33;;;;;26.25;43.68;98389.75;5080236;27;45301;-87
2023/10/18 01:47:08;;;;;;;;;4.33;3.67;;;;;26.23;43.69;98396.19;5080432;27;45579;-86
2023/10/18 01:49:43;;;;;;;;;3.00;3.00;;;;;26.21;43.83;98376.69;5079987;27;46227;-86
2023/10/18 01:52:11;;;;;;;;;3.00;3.00;;;;;26.14;43.86;98385.16;5079928;27;45479;-85
2023/10/18 01:54:38;;;;;;;;;3.67;3.00;;;;;26.11;44.06;98392.53;5079989;27;45461;-83
2023/10/18 01:57:06;;;;;;;;;5.00;3.33;;;;;26.17;43.67;98387.59;5080341;27;45224;-87
2023/10/18 01:59:34;;;;;;;;;4.33;4.00;;;;;26.07;43.72;98362.44;5079650;27;45287;-86
2023/10/18 02:02:05;;;;;;;;;8.33;5.00;;;;;26.15;44.23;98386.00;5079822;27;45504;-86
2023/10/18 02:04:36;;;;;;;;;5.00;3.00;;;;;25.76;44.21;98326.19;5079830;27;45442;-86
2023/10/18 02:07:02;;;;;;;;;4.00;4.00;;;;;25.98;44.57;98381.78;5079881;27;45425;-86
2023/10/18 02:09:48;;;;;;;;;4.00;3.00;;;;;25.75;44.61;98338.69;5079319;27;46492;-84
2023/10/18 02:12:20;;;;;;;;;0.67;0.67;;;;;26.05;44.39;98374.22;5079782;27;45575;-88
2023/10/18 02:14:46;;;;;;;;;4.33;3.67;;;;;26.01;44.63;98383.41;5079981;27;45191;-88
2023/10/18 02:17:11;;;;;;;;;5.00;2.00;;;;;25.94;44.76;98383.84;5101025;27;44836;-78
2023/10/18 02:19:38;;;;;;;;;4.00;3.33;;;;;25.20;44.89;98243.47;5090923;27;45433;-88
2023/10/18 02:22:07;;;;;;;;;4.00;3.00;;;;;26.02;45.07;98387.78;5079612;27;45426;-89
2023/10/18 02:24:34;;;;;;;;;3.33;2.00;;;;;25.96;44.88;98384.59;5079791;27;45523;-86
2023/10/18 02:27:00;;;;;;;;;4.00;3.00;;;;;25.99;44.90;98380.84;5080608;27;45349;-86
2023/10/18 02:29:27;;;;;;;;;4.00;3.33;;;;;25.70;44.96;98331.94;5079541;27;45487;-86
2023/10/18 02:31:57;;;;;;;;;4.00;3.00;;;;;25.93;45.28;98375.91;5078740;27;45344;-87
2023/10/18 02:34:25;;;;;;;;;6.00;4.00;;;;;25.60;45.39;98337.94;5079261;27;45480;-80
2023/10/18 02:36:55;;;;;;;;;4.00;3.00;;;;;25.75;45.11;98361.94;5079528;27;45457;-88
2023/10/18 02:39:27;;;;;;;;;5.00;4.67;;;;;25.83;45.55;98386.34;5079485;27;46435;-87
2023/10/18 02:41:56;;;;;;;;;3.33;2.67;;;;;25.79;45.35;98377.66;5079107;27;45272;-81
2023/10/18 02:44:22;;;;;;;;;4.00;4.00;;;;;25.92;45.54;98393.75;5079557;27;45461;-86
2023/10/18 02:46:52;;;;;;;;;4.67;3.33;;;;;25.76;45.74;98374.31;5079602;27;45347;-84
2023/10/18 02:49:18;;;;;;;;;4.00;3.67;;;;;25.68;45.83;98339.22;5079373;27;46206;-87
2023/10/18 02:51:47;;;;;;;;;3.00;2.00;;;;;25.55;45.86;98361.44;5078870;27;45477;-87
2023/10/18 02:56:38;;;;;;;;;3.67;3.67;;;;;25.47;46.08;98373.59;5079245;27;45342;-88
2023/10/18 02:59:08;;;;;;;;;3.00;3.00;;;;;25.86;45.79;98422.69;5078698;27;46382;-88
2023/10/18 03:01:40;;;;;;;;;5.00;3.67;;;;;25.55;46.13;98381.97;5079078;28;45342;-85
2023/10/18 03:04:11;;;;;;;;;5.00;4.67;;;;;25.80;46.38;98418.63;5078929;27;45517;-87
2023/10/18 03:06:37;;;;;;;;;4.33;3.00;;;;;25.83;46.09;98422.94;5078922;27;45381;-84
2023/10/18 03:09:05;;;;;;;;;4.00;3.33;;;;;25.77;46.45;98416.16;5078442;28;45515;-84
2023/10/18 03:11:32;;;;;;;;;5.00;4.00;;;;;25.73;46.80;98417.31;5078768;27;45446;-86
2023/10/18 03:13:58;;;;;;;;;5.33;4.00;;;;;25.49;47.98;98383.22;5079407;27;45449;-87
2023/10/18 03:16:38;;;;;;;;;5.00;4.00;;;;;25.66;48.49;98405.31;5080251;27;45200;-87
2023/10/18 03:19:12;;;;;;;;;4.00;4.00;;;;;25.45;49.23;98391.56;5080116;27;45492;-88
2023/10/18 03:21:50;;;;;;;;;4.00;4.00;;;;;24.98;49.37;98318.84;5078510;27;45399;-86
2023/10/18 03:24:19;;;;;;;;;4.00;3.33;;;;;25.10;49.24;98350.09;5078526;27;45385;-88
2023/10/18 03:26:45;;;;;;;;;4.33;4.00;;;;;25.32;49.91;98400.34;5085155;27;45442;-87
2023/10/18 03:29:15;;;;;;;;;3.33;3.33;;;;;25.17;49.42;98383.47;5090610;27;45416;-79
2023/10/18 03:31:43;;;;;;;;;2.00;2.00;;;;;25.24;49.66;98400.00;5093225;27;44660;-87
2023/10/18 03:34:17;;;;;;;;;5.67;4.00;;;;;25.06;50.97;98396.66;5091233;27;45203;-79
2023/10/18 03:36:51;;;;;;;;;3.33;3.33;;;;;25.05;51.14;98405.66;5079431;27;45303;-86
2023/10/18 03:39:19;;;;;;;;;3.00;3.00;;;;;25.00;50.62;98411.25;5077862;27;46329;-81
2023/10/18 03:41:50;;;;;;;;;4.00;4.00;;;;;24.75;52.63;98397.72;5076699;27;45432;-80
2023/10/18 03:44:21;;;;;;;;;3.33;3.00;;;;;24.36;51.76;98332.50;5078299;27;45255;-81
2023/10/18 03:46:48;;;;;;;;;5.33;4.33;;;;;24.78;51.57;98390.38;5078428;27;45612;-80
2023/10/18 03:49:23;;;;;;;;;3.33;3.00;;;;;24.58;51.20;98345.41;5077847;28;46138;-81
2023/10/18 03:51:54;;;;;;;;;3.00;3.00;;;;;24.51;51.82;98350.28;5077816;27;45523;-83
2023/10/18 03:54:23;;;;;;;;;4.33;4.00;;;;;24.70;51.70;98387.34;5078116;27;45548;-87
2023/10/18 03:56:52;;;;;;;;;2.00;1.33;;;;;24.56;51.48;98382.00;5078157;27;45508;-88
2023/10/18 03:59:21;;;;;;;;;4.00;3.00;;;;;24.54;51.66;98374.09;5078035;27;45543;-88
2023/10/18 04:04:37;;;;;;;;;3.00;3.00;;;;;24.51;53.36;98390.31;5078088;28;45307;-88
2023/10/18 04:07:12;;;;;;;;;4.33;3.67;;;;;24.48;52.45;98393.13;5078414;27;45409;-88
2023/10/18 04:09:46;;;;;;;;;3.33;3.00;;;;;24.40;53.26;98396.25;5077880;27;45328;-80
2023/10/18 04:12:17;;;;;;;;;4.67;4.00;;;;;24.20;53.74;98361.94;5077490;27;45262;-84
2023/10/18 04:14:52;;;;;;;;;4.67;4.00;;;;;23.98;53.17;98335.72;5077760;27;45555;-87
2023/10/18 04:17:31;;;;;;;;;3.67;3.67;;;;;24.05;53.32;98344.19;5078294;27;45346;-86
2023/10/18 04:19:58;;;;;;;;;5.00;5.00;;;;;23.89;54.59;98334.44;5078449;27;45643;-87
2023/10/18 04:22:24;;;;;;;;;4.00;4.00;;;;;23.62;54.42;98305.78;5078389;27;45435;-88
2023/10/18 04:24:52;;;;;;;;;6.33;3.00;;;;;23.95;54.83;98367.88;5078030;28;46187;-88
2023/10/18 04:27:17;;;;;;;;;4.00;4.00;;;;;23.40;54.20;98278.69;5077230;28;45578;-88
2023/10/18 04:29:47;;;;;;;;;4.00;4.00;;;;;24.11;55.61;98406.03;5078058;27;45350;-88
2023/10/18 04:32:18;;;;;;;;;6.00;4.67;;;;;23.93;56.65;98413.31;5077892;27;45471;-86
2023/10/18 04:34:46;;;;;;;;;5.00;4.00;;;;;23.51;55.82;98361.50;5077746;27;45283;-84
2023/10/18 04:37:14;;;;;;;;;3.00;3.00;;;;;23.85;56.94;98428.91;5077695;27;45507;-84
2023/10/18 04:39:40;;;;;;;;;6.33;4.00;;;;;23.44;56.77;98386.81;5077630;27;45360;-81
2023/10/18 04:42:08;;;;;;;;;5.00;4.33;;;;;23.43;57.30;98407.25;5077495;27;45391;-88
2023/10/18 04:44:37;;;;;;;;;4.00;3.33;;;;;23.60;57.29;98445.44;5077724;27;45178;-88
2023/10/18 04:47:14;;;;;;;;;6.00;6.00;;;;;22.93;57.55;98357.66;5077717;27;45414;-87
2023/10/18 04:49:40;;;;;;;;;4.00;4.00;;;;;23.47;58.47;98452.41;5077127;27;46280;-87
2023/10/18 04:52:08;;;;;;;;;5.00;4.67;;;;;23.36;58.26;98451.19;5077288;27;45369;-88
2023/10/18 04:54:43;;;;;;;;;2.33;2.33;;;;;22.98;58.23;98381.41;5077580;27;45250;-86
2023/10/18 04:57:11;;;;;;;;;5.67;5.00;;;;;23.19;58.08;98430.81;5081293;28;45368;-86
2023/10/18 04:59:45;;;;;;;;;5.00;5.00;;;;;23.20;58.46;98453.00;5080667;27;45460;-87
2023/10/18 05:02:26;;;;;;;;;6.00;6.00;;;;;23.28;58.18;98465.88;5080902;27;45460;-87
2023/10/18 05:04:52;;;;;;;;;5.67;5.67;;;;;23.21;60.01;98476.00;5080768;28;45461;-87
2023/10/18 05:07:21;;;;;;;;;5.67;5.00;;;;;22.99;59.34;98417.72;5079429;28;45692;-87
2023/10/18 05:09:55;;;;;;;;;6.67;5.00;;;;;23.11;59.58;98445.50;5080301;27;45425;-87
2023/10/18 05:15:06;;;;;;;;;5.33;5.33;;;;;22.77;58.91;98402.91;5080575;27;45309;-87
2023/10/18 05:17:33;;;;;;;;;5.00;4.67;;;;;23.21;58.96;98487.50;5080733;27;45440;-81
2023/10/18 05:22:50;;;;;;;;;7.33;5.67;;;;;22.87;59.73;98453.00;5080258;27;45169;-88
2023/10/18 05:27:59;;;;;;;;;6.00;5.00;;;;;22.97;60.06;98478.19;5080390;27;45453;-80
2023/10/18 05:31:20;;;;;;;;;5.33;5.00;;;;;22.84;60.18;98462.88;5079494;27;46668;-78
2023/10/18 05:43:47;;;;;;;;;5.00;4.00;;;;;22.48;59.86;98411.59;5079744;27;45510;-85
2023/10/18 05:46:13;;;;;;;;;5.33;4.67;;;;;22.96;59.91;98501.28;5079859;27;45346;-77
2023/10/18 05:48:42;;;;;;;;;3.00;3.00;;;;;22.92;59.59;98473.09;5080072;27;45400;-77
2023/10/18 05:51:26;;;;;;;;;5.00;4.00;;;;;22.71;59.60;98437.84;5079715;27;45614;-77
2023/10/18 05:53:59;;;;;;;;;4.00;3.00;;;;;23.00;59.10;98492.19;5079596;27;45357;-77
2023/10/18 05:56:34;;;;;;;;;3.00;3.00;;;;;23.01;59.31;98495.72;5079599;27;45341;-86
2023/10/18 06:01:58;;;;;;;;;4.00;4.00;;;;;23.13;57.93;98495.06;5079178;28;45433;-77
2023/10/18 06:04:33;;;;;;;;;5.00;5.00;;;;;23.13;58.89;98499.53;5079592;27;45379;-77
2023/10/18 06:06:59;;;;;;;;;4.00;3.67;;;;;22.94;58.00;98483.66;5078319;27;45221;-84
2023/10/18 06:09:29;;;;;;;;;4.00;4.00;;;;;22.84;58.31;98452.22;5079635;27;45449;-77
2023/10/18 06:11:55;;;;;;;;;5.00;5.00;;;;;22.89;58.40;98459.09;5079866;27;45567;-83
2023/10/18 06:14:25;;;;;;;;;5.00;4.67;;;;;22.88;58.53;98460.91;5080512;28;45263;-86
2023/10/18 06:16:52;;;;;;;;;5.00;3.33;;;;;22.94;58.09;98470.34;5079421;27;45427;-83
2023/10/18 06:19:27;;;;;;;;;5.67;5.67;;;;;22.91;57.89;98478.50;5079621;28;45510;-85
2023/10/18 06:22:08;;;;;;;;;6.00;5.00;;;;;22.82;57.83;98464.75;5079850;27;46224;-85
2023/10/18 06:24:33;;;;;;;;;2.33;1.33;;;;;23.29;57.29;98513.75;5083994;27;45207;-85
2023/10/18 06:26:59;;;;;;;;;5.00;4.00;;;;;23.32;57.53;98518.91;5080542;27;45268;-86
2023/10/18 06:29:25;;;;;;;;;5.00;4.00;;;;;23.35;57.28;98521.41;5080343;27;45408;-83
2023/10/18 06:31:53;;;;;;;;;5.00;4.00;;;;;23.40;57.49;98532.69;5079998;27;45374;-82
2023/10/18 06:34:29;;;;;;;;;6.00;5.33;;;;;23.41;57.04;98537.03;5078195;27;45497;-80
2023/10/18 06:37:08;;;;;;;;;4.33;4.00;;;;;23.35;57.30;98524.06;5075935;27;45366;-78
2023/10/18 06:39:37;;;;;;;;;5.33;5.33;;;;;23.25;57.14;98509.53;5079975;27;45484;-80
2023/10/18 06:42:06;;;;;;;;;5.00;5.00;;;;;23.13;56.74;98496.88;5101700;27;45435;-83
2023/10/18 06:44:34;;;;;;;;;4.67;4.67;;;;;23.52;57.17;98557.78;5091511;27;44761;-84
2023/10/18 06:47:06;;;;;;;;;5.00;5.00;;;;;23.43;57.21;98545.81;5077020;28;45438;-86
2023/10/18 06:49:32;;;;;;;;;6.00;5.67;;;;;23.67;56.37;98571.22;5079651;27;45258;-77
2023/10/18 06:52:00;;;;;;;;;6.00;6.00;;;;;23.46;56.37;98531.47;5076140;28;46049;-76
2023/10/18 06:54:32;;;;;;;;;5.00;5.00;;;;;23.83;56.55;98585.44;5086055;27;45511;-77
2023/10/18 06:57:09;;;;;;;;;4.33;4.00;;;;;23.43;56.04;98519.16;5078171;28;45547;-78
2023/10/18 06:59:37;;;;;;;;;5.00;4.67;;;;;23.96;56.21;98593.63;5082374;27;45452;-77
2023/10/18 07:02:05;;;;;;;;;6.00;6.00;;;;;23.79;56.31;98571.41;5078752;27;46804;-78
2023/10/18 07:04:37;;;;;;;;;4.00;4.00;;;;;23.89;55.57;98584.25;5077432;28;45546;-82
2023/10/18 07:07:13;;;;;;;;;7.00;7.00;;;;;24.02;55.93;98595.94;5078787;28;45327;-81
2023/10/18 07:09:42;;;;;;;;;4.67;4.00;;;;;23.95;55.90;98592.75;5078438;27;45445;-79
2023/10/18 07:12:11;;;;;;;;;3.00;3.00;;;;;23.84;55.70;98575.66;5078265;27;46332;-83
2023/10/18 07:14:40;;;;;;;;;6.00;5.00;;;;;24.08;55.74;98610.75;5077034;28;45410;-80
2023/10/18 07:17:09;;;;;;;;;5.00;4.00;;;;;24.08;55.35;98618.75;5078650;28;45450;-82
2023/10/18 07:19:47;;;;;;;;;3.33;3.33;;;;;24.11;55.10;98611.41;5078244;28;45378;-82
2023/10/18 07:22:18;;;;;;;;;4.33;4.33;;;;;24.17;55.64;98628.88;5078160;27;46702;-82
2023/10/18 07:24:53;;;;;;;;;5.33;5.33;;;;;24.23;55.33;98623.19;5078037;27;45406;-82
2023/10/18 07:27:23;;;;;;;;;4.00;4.00;;;;;24.26;55.11;98615.03;5078180;27;45481;-82
2023/10/18 07:29:49;;;;;;;;;4.00;4.00;;;;;24.38;54.82;98618.81;5078397;27;45263;-83
2023/10/18 07:32:20;;;;;;;;;3.00;3.00;;;;;24.45;54.65;98614.81;5078421;27;45512;-83
2023/10/18 07:34:48;;;;;;;;;2.00;2.00;;;;;24.77;54.02;98630.78;5078000;27;45444;-82
2023/10/18 07:37:17;;;;;;;;;3.00;3.00;;;;;24.69;53.70;98601.91;5092359;27;45595;-79
2023/10/18 07:39:56;;;;;;;;;4.00;4.00;;;;;25.04;53.52;98617.63;5080252;27;45365;-83
2023/10/18 07:42:26;;;;;;;;;3.33;3.00;;;;;25.76;52.20;98615.00;5077821;27;46274;-84
2023/10/18 07:44:55;;;;;;;;;2.33;2.33;;;;;27.30;49.49;98604.91;5077986;27;45278;-84
2023/10/18 07:47:25;;;;;;;;;4.00;4.00;;;;;27.76;46.95;98591.75;5078474;28;45318;-84
2023/10/18 07:49:55;;;;;;;;;3.67;3.00;;;;;28.45;45.86;98612.72;5077805;27;45617;-84
2023/10/18 07:52:21;;;;;;;;;2.33;2.33;;;;;28.22;45.63;98635.03;5077423;28;46183;-84
2023/10/18 07:54:48;;;;;;;;;3.00;3.00;;;;;29.66;44.08;98628.59;5077622;27;45456;-82
2023/10/18 07:57:17;;;;;;;;;2.00;2.00;;;;;31.83;41.36;98630.22;5077928;27;45365;-85
2023/10/18 07:59:46;;;;;;;;;2.00;2.00;;;;;33.63;37.34;98621.00;5077305;28;45353;-86
2023/10/18 08:02:12;;;;;;;;;2.00;1.00;;;;;33.66;36.45;98623.41;5077762;28;45441;-83
2023/10/18 08:04:40;;;;;;;;;1.00;1.00;;;;;32.03;37.49;98638.44;5078000;28;45481;-86
2023/10/18 08:07:10;;;;;;;;;0.00;0.00;;;;;30.88;40.29;98642.00;5077383;28;45499;-86
2023/10/18 08:09:41;;;;;;;;;2.67;1.33;;;;;30.18;41.21;98643.25;5076519;27;45488;-87
2023/10/18 08:12:18;;;;;;;;;3.00;2.67;;;;;30.00;41.61;98655.53;5076768;27;45389;-85
2023/10/18 08:14:47;;;;;;;;;1.00;1.00;;;;;29.87;41.49;98626.06;5076425;27;45333;-86
2023/10/18 08:20:55;;;;;;;;;0.33;0.33;;;;;31.94;38.03;98655.44;5077365;28;45452;-87
2023/10/18 08:22:45;;;;;;;;;0.00;0.00;;;;;31.18;39.15;98670.06;5076524;28;45949;-87
2023/10/18 08:25:31;;;;;;;;;1.00;0.00;;;;;30.44;40.24;98678.00;5077237;27;45323;-88
2023/10/18 08:27:59;;;;;;;;;0.00;0.00;;;;;29.89;40.62;98672.56;5077103;27;45279;-83
2023/10/18 08:33:10;;;;;;;;;1.00;1.00;;;;;31.03;39.31;98656.03;5077714;27;45497;-87
2023/10/18 08:35:36;;;;;;;;;0.00;0.00;;;;;31.15;38.83;98678.41;5077381;27;45536;-87
2023/10/18 08:38:02;;;;;;;;;1.00;0.00;;;;;30.23;39.61;98648.28;5077675;27;45487;-87
2023/10/18 08:40:38;;;;;;;;;0.67;0.33;;;;;30.24;40.02;98683.19;5077790;27;45435;-87
2023/10/18 08:43:32;;;;;;;;;0.33;0.00;;;;;30.64;39.50;98665.59;5077161;27;46226;-88
2023/10/18 08:46:05;;;;;;;;;4.67;4.00;;;;;31.47;38.73;98688.28;5081257;27;45362;-89
2023/10/18 08:48:38;;;;;;;;;0.33;0.00;;;;;31.23;38.84;98699.31;5077528;27;45348;-80
2023/10/18 08:51:05;;;;;;;;;0.00;0.00;;;;;30.51;39.06;98687.31;5077859;27;45377;-87
2023/10/18 08:53:33;;;;;;;;;2.33;2.33;;;;;29.97;40.59;98691.63;5077441;28;45456;-89
2023/10/18 08:55:59;;;;;;;;;1.00;1.00;;;;;29.68;40.79;98680.44;5077503;27;45390;-84
2023/10/18 08:58:28;;;;;;;;;0.33;0.33;;;;;29.61;40.64;98674.72;5077855;27;45453;-86
2023/10/18 09:03:23;;;;;;;;;0.00;0.00;;;;;30.35;40.33;98690.41;5098132;27;46314;-78
2023/10/18 09:06:03;;;;;;;;;0.00;0.00;;;;;31.61;38.18;98701.44;5099016;27;45287;-85
2023/10/18 09:08:35;;;;;;;;;1.00;1.00;;;;;32.65;36.73;98695.91;5093720;27;45316;-86
2023/10/18 09:11:05;;;;;;;;;2.00;2.00;;;;;33.28;35.45;98680.16;5097241;27;45417;-88
2023/10/18 09:13:37;;;;;;;;;0.00;0.00;;;;;33.74;34.97;98701.19;5087151;27;45330;-90
2023/10/18 09:16:04;;;;;;;;;0.00;0.00;;;;;34.06;33.69;98693.53;5077462;27;45326;-89
2023/10/18 09:18:33;;;;;;;;;0.00;0.00;;;;;33.66;33.96;98697.38;5078464;27;45722;-87
2023/10/18 09:23:40;;;;;;;;;4.00;3.00;;;;;33.71;33.99;98724.00;5083265;27;45414;-88
2023/10/18 09:26:18;;;;;;;;;0.00;0.00;;;;;33.88;34.15;98723.25;5080974;27;45251;-90
2023/10/18 09:28:44;;;;;;;;;0.00;0.00;;;;;33.88;33.70;98677.19;5081064;28;45393;-89
2023/10/18 09:31:18;;;;;;;;;0.00;0.00;;;;;34.15;33.04;98735.16;5081271;27;45571;-90
2023/10/18 09:34:07;;;;;;;;;0.00;0.00;;;;;33.80;33.31;98738.50;5080871;27;45503;-86
2023/10/18 09:36:40;;;;;;;;;0.00;0.00;;;;;33.81;33.17;98746.50;5080219;27;45192;-90
2023/10/18 09:39:15;;;;;;;;;0.00;0.00;;;;;33.66;32.85;98729.00;5080963;28;45451;-86
2023/10/18 09:41:40;;;;;;;;;0.00;0.00;;;;;33.77;33.03;98753.19;5080943;27;45418;-89
2023/10/18 09:44:07;;;;;;;;;0.00;0.00;;;;;33.87;33.17;98754.03;5081214;27;46757;-90
2023/10/18 09:46:35;;;;;;;;;0.00;0.00;;;;;33.92;33.55;98753.56;5081670;28;45455;-77
2023/10/18 09:49:08;;;;;;;;;0.00;0.00;;;;;33.94;33.21;98748.88;5082669;27;45312;-80
2023/10/18 09:51:34;;;;;;;;;0.00;0.00;;;;;33.43;33.17;98726.59;5082082;28;45473;-79
2023/10/18 09:54:07;;;;;;;;;0.00;0.00;;;;;32.91;33.89;98736.81;5082227;27;45210;-76
2023/10/18 09:56:34;;;;;;;;;0.00;0.00;;;;;32.46;35.28;98777.81;5083143;27;45235;-79
2023/10/18 09:59:05;;;;;;;;;0.00;0.00;;;;;32.68;34.61;98783.00;5081762;27;45268;-78
2023/10/18 10:04:12;;;;;;;;;0.00;0.00;;;;;32.93;34.90;98777.22;5080503;27;45832;-89
2023/10/18 10:06:45;;;;;;;;;0.00;0.00;;;;;33.11;34.58;98789.13;5079998;27;45499;-89
2023/10/18 10:09:12;;;;;;;;;0.00;0.00;;;;;33.34;34.21;98792.38;5080111;27;45403;-86
2023/10/18 10:11:45;;;;;;;;;0.00;0.00;;;;;33.71;33.47;98786.28;5079918;27;45360;-84
2023/10/18 10:14:21;;;;;;;;;1.00;1.00;;;;;33.71;34.32;98788.16;5079536;27;46088;-89
2023/10/18 10:17:07;;;;;;;;;0.00;0.00;;;;;34.24;34.00;98810.16;5080075;27;45329;-85
2023/10/18 10:19:40;;;;;;;;;0.00;0.00;;;;;34.57;33.47;98807.00;5080227;28;45307;-85
2023/10/18 10:22:08;;;;;;;;;0.00;0.00;;;;;34.07;32.93;98660.00;5092282;27;45270;-89
2023/10/18 10:24:51;;;;;;;;;0.00;0.00;;;;;35.21;32.71;98791.69;5079466;27;46482;-86
2023/10/18 10:32:58;;;;;;;;;0.00;0.00;;;;;34.51;31.43;98788.63;5079857;27;45304;-80
2023/10/18 10:35:25;;;;;;;;;0.00;0.00;;;;;34.05;32.73;98778.50;5079257;28;46154;-86
2023/10/18 10:38:06;;;;;;;;;0.00;0.00;;;;;34.13;32.97;98791.31;5078923;27;45453;-87
2023/10/18 10:43:12;;;;;;;;;0.00;0.00;;;;;33.96;31.66;98806.47;5079070;28;45495;-84
2023/10/18 10:51:11;;;;;;;;;1.00;1.00;;;;;33.27;31.80;98802.94;5079042;27;45452;-84
2023/10/18 10:53:44;;;;;;;;;0.00;0.00;;;;;33.35;31.39;98815.78;5079003;27;45313;-85
2023/10/18 10:56:17;;;;;;;;;0.00;0.00;;;;;33.08;32.14;98822.66;5079041;27;45487;-81
2023/10/18 10:58:54;;;;;;;;;0.00;0.00;;;;;32.70;32.54;98797.25;5078872;27;45314;-83
2023/10/18 11:01:31;;;;;;;;;0.67;0.67;;;;;32.95;32.26;98816.69;5079861;27;45262;-88
2023/10/18 11:03:59;;;;;;;;;0.00;0.00;;;;;32.72;32.06;98761.97;5079058;27;45397;-88
2023/10/18 11:06:27;;;;;;;;;0.00;0.00;;;;;33.14;31.57;98832.13;5078574;27;45547;-88
2023/10/18 11:08:53;;;;;;;;;0.00;0.00;;;;;32.95;31.72;98800.47;5079063;27;45178;-84
2023/10/18 11:11:23;;;;;;;;;0.00;0.00;;;;;32.70;32.05;98845.91;5078941;27;45387;-87
2023/10/18 11:13:50;;;;;;;;;0.00;0.00;;;;;32.19;32.29;98846.81;5079306;27;45474;-88
2023/10/18 11:16:22;;;;;;;;;0.00;0.00;;;;;31.93;32.91;98851.69;5078860;27;46076;-88
2023/10/18 11:18:49;;;;;;;;;0.00;0.00;;;;;31.78;33.66;98864.69;5078956;27;45360;-88
2023/10/18 11:21:29;;;;;;;;;1.67;1.67;;;;;31.82;36.69;98876.94;5078552;27;45552;-89
2023/10/18 11:24:04;;;;;;;;;2.33;1.33;;;;;31.67;39.12;98865.56;5078585;28;45210;-86
2023/10/18 11:26:38;;;;;;;;;0.00;0.00;;;;;31.35;40.65;98868.25;5078194;27;46214;-85
2023/10/18 11:29:07;;;;;;;;;0.00;0.00;;;;;30.78;42.11;98891.75;5078259;28;45365;-88
2023/10/18 11:31:37;;;;;;;;;0.00;0.00;;;;;30.41;43.63;98878.50;5078460;27;45384;-88
2023/10/18 11:34:07;;;;;;;;;4.00;3.00;;;;;30.56;43.54;98887.22;5078584;27;45436;-88
2023/10/18 11:36:34;;;;;;;;;0.00;0.00;;;;;30.33;44.49;98879.09;5078497;27;45486;-87
2023/10/18 11:41:42;;;;;;;;;1.00;0.00;;;;;30.33;45.77;98881.78;5078980;27;45413;-88
2023/10/18 11:44:13;;;;;;;;;0.00;0.00;;;;;29.17;46.05;98735.50;5078801;27;46013;-88
2023/10/18 11:46:56;;;;;;;;;0.00;0.00;;;;;30.03;46.02;98876.06;5077033;28;46462;-87
2023/10/18 11:49:33;;;;;;;;;0.00;0.00;;;;;30.00;46.23;98884.38;5078725;27;45466;-88
2023/10/18 11:51:59;;;;;;;;;0.33;0.33;;;;;29.81;47.40;98879.56;5084382;27;45206;-76
2023/10/18 11:54:29;;;;;;;;;0.00;0.00;;;;;29.91;47.82;98876.03;5089137;27;45163;-75
2023/10/18 11:56:56;;;;;;;;;0.67;0.67;;;;;29.70;47.69;98853.41;5089043;27;46189;-75
2023/10/18 11:59:26;;;;;;;;;0.00;0.00;;;;;29.91;47.03;98873.34;5082187;27;45266;-83
2023/10/18 12:01:56;;;;;;;;;1.00;0.00;;;;;29.87;47.38;98863.78;5078480;27;45493;-88
2023/10/18 12:04:27;;;;;;;;;0.00;0.00;;;;;29.68;47.00;98858.06;5078282;27;45476;-87
2023/10/18 12:06:56;;;;;;;;;0.00;0.00;;;;;29.57;47.31;98848.13;5077522;28;45507;-88
2023/10/18 12:09:25;;;;;;;;;0.00;0.00;;;;;29.54;47.08;98846.53;5078432;27;45234;-88
2023/10/18 12:11:54;;;;;;;;;0.00;0.00;;;;;29.37;47.42;98841.56;5078360;28;45597;-88
2023/10/18 12:14:22;;;;;;;;;0.00;0.00;;;;;29.45;46.38;98847.22;5078273;27;45533;-88
2023/10/18 12:16:50;;;;;;;;;0.00;0.00;;;;;29.31;45.90;98801.69;5077671;27;45551;-80
2023/10/18 12:19:16;;;;;;;;;0.00;0.00;;;;;29.63;46.44;98849.50;5077713;27;45497;-79
2023/10/18 12:21:48;;;;;;;;;0.00;0.00;;;;;29.61;46.58;98841.53;5075972;28;45331;-78
2023/10/18 12:24:18;;;;;;;;;0.00;0.00;;;;;29.69;46.25;98833.72;5075597;28;45542;-78
2023/10/18 12:26:53;;;;;;;;;0.00;0.00;;;;;29.38;47.00;98808.28;5074847;28;45723;-83
2023/10/18 12:29:26;;;;;;;;;0.67;0.00;;;;;29.30;47.52;98808.00;5076026;27;45468;-77
2023/10/18 12:31:54;;;;;;;;;0.00;0.00;;;;;29.14;47.87;98837.88;5076628;27;45433;-84
2023/10/18 12:34:28;;;;;;;;;0.00;0.00;;;;;28.94;48.28;98831.25;5076448;27;45371;-84
2023/10/18 12:36:56;;;;;;;;;0.00;0.00;;;;;28.87;47.62;98792.34;5075616;27;46838;-79
2023/10/18 12:39:22;;;;;;;;;0.00;0.00;;;;;28.83;48.63;98844.59;5075168;27;45650;-76
2023/10/18 12:41:53;;;;;;;;;1.00;0.00;;;;;28.65;48.65;98842.31;5075354;28;45460;-85
2023/10/18 12:44:19;;;;;;;;;0.00;0.00;;;;;28.62;48.51;98831.75;5076115;28;45544;-87
2023/10/18 12:46:45;;;;;;;;;0.67;0.00;;;;;28.81;48.34;98830.41;5075634;27;45499;-87